createdAt,value
2022-10-13T00:02:45.420Z,101108.19
2022-10-13T00:06:46.911Z,101100.47
2022-10-13T00:10:50.301Z,101105.69
2022-10-13T00:14:53.956Z,101094.47
2022-10-13T00:18:55.621Z,101098.72
2022-10-13T00:22:57.115Z,101092.75
2022-10-13T00:26:58.674Z,101098.72
2022-10-13T00:31:01.480Z,101092.72
2022-10-13T00:35:03.229Z,101096.09
2022-10-13T00:39:05.000Z,101097.88
2022-10-13T00:43:16.506Z,101093.53
2022-10-13T00:47:19.348Z,101091.84
2022-10-13T00:51:24.137Z,101096.09
2022-10-13T00:55:31.474Z,101098.44
2022-10-13T00:59:34.754Z,101103.47
2022-10-13T01:03:36.637Z,101097.28
2022-10-13T01:07:38.227Z,101084.41
2022-10-13T01:11:58.295Z,101081.75
2022-10-13T01:16:06.299Z,101084.13
2022-10-13T01:20:40.652Z,101087.41
2022-10-13T01:24:47.462Z,101095.13
2022-10-13T01:29:11.608Z,101096.84
2022-10-13T01:33:19.732Z,101087.63
2022-10-13T01:37:32.726Z,101089.44
2022-10-13T01:41:40.264Z,101087.72
2022-10-13T01:45:53.655Z,101092.25
2022-10-13T01:49:56.731Z,101092.53
2022-10-13T01:53:58.287Z,101090.94
2022-10-13T01:57:59.904Z,101086.69
2022-10-13T02:02:24.867Z,101099.59
2022-10-13T02:06:33.414Z,101098.31
2022-10-13T02:10:39.016Z,101094.81
2022-10-13T02:14:43.017Z,101093.69
2022-10-13T02:18:44.686Z,101086.63
2022-10-13T02:22:54.473Z,101082.38
2022-10-13T02:26:56.697Z,101086.50
2022-10-13T02:30:58.284Z,101088.84
2022-10-13T02:34:59.777Z,101074.09
2022-10-13T02:39:01.435Z,101072.25
2022-10-13T02:43:03.162Z,101071.34
2022-10-13T02:47:04.689Z,101073.69
2022-10-13T02:51:06.263Z,101063.38
2022-10-13T02:55:08.172Z,101062.44
2022-10-13T02:59:09.712Z,101063.28
2022-10-13T03:03:11.640Z,101058.16
2022-10-13T03:07:13.206Z,101059.97
2022-10-13T03:11:14.751Z,101057.47
2022-10-13T03:15:16.337Z,101063.41
2022-10-13T03:19:17.808Z,101059.03
2022-10-13T03:23:19.414Z,101059.84
2022-10-13T03:27:20.917Z,101054.81
2022-10-13T03:31:22.495Z,101051.41
2022-10-13T03:35:24.000Z,101052.97
2022-10-13T03:39:25.618Z,101053.88
2022-10-13T03:43:27.695Z,101056.56
2022-10-13T03:47:29.510Z,101053.13
2022-10-13T03:51:31.292Z,101045.53
2022-10-13T03:55:33.159Z,101047.31
2022-10-13T03:59:36.939Z,101051.78
2022-10-13T04:03:38.706Z,101058.66
2022-10-13T04:07:40.220Z,101051.91
2022-10-13T04:11:53.529Z,101052.75
2022-10-13T04:15:55.127Z,101046.00
2022-10-13T04:19:56.624Z,101047.81
2022-10-13T04:23:59.241Z,101052.00
2022-10-13T04:28:00.729Z,101048.47
2022-10-13T04:32:02.229Z,101051.78
2022-10-13T04:36:05.312Z,101047.31
2022-10-13T04:40:07.194Z,101053.09
2022-10-13T04:44:10.019Z,101046.19
2022-10-13T04:48:11.801Z,101042.84
2022-10-13T04:52:13.282Z,101038.72
2022-10-13T04:56:17.143Z,101037.72
2022-10-13T05:00:18.916Z,101033.41
2022-10-13T05:04:20.417Z,101036.75
2022-10-13T05:08:22.575Z,101032.41
2022-10-13T05:12:24.214Z,101028.09
2022-10-13T05:16:26.156Z,101019.28
2022-10-13T05:20:27.697Z,101015.59
2022-10-13T05:24:38.837Z,101020.03
2022-10-13T05:28:40.947Z,100997.72
2022-10-13T05:32:42.603Z,100991.56
2022-10-13T05:36:44.154Z,100988.00
2022-10-13T05:40:45.756Z,101001.72
2022-10-13T05:44:47.297Z,101003.69
2022-10-13T05:48:48.923Z,101008.06
2022-10-13T05:52:51.636Z,101002.94
2022-10-13T05:57:07.579Z,100998.66
2022-10-13T06:01:12.695Z,101000.28
2022-10-13T06:05:17.418Z,100993.69
2022-10-13T06:09:19.388Z,100997.03
2022-10-13T06:13:20.889Z,100994.56
2022-10-13T06:17:22.422Z,100998.19
2022-10-13T06:21:24.171Z,101005.53
2022-10-13T06:25:25.745Z,100995.47
2022-10-13T06:29:27.263Z,100995.75
2022-10-13T06:33:28.849Z,100999.28
2022-10-13T06:37:30.480Z,101011.41
2022-10-13T06:41:32.085Z,101006.66
2022-10-13T06:45:33.679Z,101011.03
2022-10-13T06:49:35.326Z,101022.44
2022-10-13T06:53:37.046Z,101019.88
2022-10-13T06:57:38.808Z,101016.50
2022-10-13T07:01:42.075Z,101005.47
2022-10-13T07:05:47.079Z,101003.00
2022-10-13T07:09:49.268Z,100997.97
2022-10-13T07:13:50.869Z,100977.78
2022-10-13T07:17:53.981Z,100983.22
2022-10-13T07:21:56.405Z,100993.78
2022-10-13T07:25:58.704Z,100987.19
2022-10-13T07:30:00.222Z,100986.56
2022-10-13T07:34:02.138Z,100980.84
2022-10-13T07:38:05.126Z,100985.19
2022-10-13T07:42:06.614Z,100981.75
2022-10-13T07:46:08.708Z,100963.66
2022-10-13T07:50:10.621Z,100966.69
2022-10-13T07:54:12.238Z,100956.34
2022-10-13T07:58:14.122Z,100960.06
2022-10-13T08:02:15.643Z,100961.44
2022-10-13T08:06:17.758Z,100965.50
2022-10-13T08:10:19.603Z,100968.47
2022-10-13T08:14:21.282Z,100958.41
2022-10-13T08:18:22.809Z,100984.50
2022-10-13T08:22:28.096Z,100990.59
2022-10-13T08:26:30.152Z,100980.00
2022-10-13T08:30:32.330Z,100983.28
2022-10-13T08:34:35.812Z,100976.16
2022-10-13T08:38:37.449Z,100983.53
2022-10-13T08:42:44.318Z,100997.16
2022-10-13T08:47:01.503Z,100995.41
2022-10-13T08:51:06.637Z,100984.97
2022-10-13T08:55:20.253Z,100996.81
2022-10-13T08:59:22.004Z,100996.72
2022-10-13T09:03:27.667Z,100999.38
2022-10-13T09:07:34.595Z,100986.66
2022-10-13T09:11:39.687Z,100979.38
2022-10-13T09:15:50.288Z,100981.78
2022-10-13T09:20:22.014Z,100988.72
2022-10-13T09:24:25.453Z,100981.47
2022-10-13T09:28:30.032Z,100977.91
2022-10-13T09:32:35.347Z,100984.63
2022-10-13T09:36:37.946Z,100977.69
2022-10-13T09:40:40.840Z,100978.53
2022-10-13T09:44:42.708Z,100980.50
2022-10-13T09:48:49.066Z,100978.09
2022-10-13T09:52:51.078Z,100985.91
2022-10-13T09:57:34.156Z,100969.50
2022-10-13T10:01:41.799Z,100968.66
2022-10-13T10:05:52.212Z,100951.88
2022-10-13T10:10:01.718Z,100951.97
2022-10-13T10:14:20.810Z,100937.66
2022-10-13T10:18:30.718Z,100937.28
2022-10-13T10:22:59.658Z,100957.97
2022-10-13T10:27:30.436Z,100950.31
2022-10-13T10:31:49.843Z,100957.38
2022-10-13T10:36:16.857Z,100952.97
2022-10-13T10:40:59.834Z,100946.16
2022-10-13T10:45:04.483Z,100947.41
2022-10-13T10:49:35.929Z,100940.06
2022-10-13T10:53:57.765Z,100943.50
2022-10-13T10:58:12.649Z,100925.66
2022-10-13T11:02:38.641Z,100928.69
2022-10-13T11:06:40.251Z,100904.94
2022-10-13T11:10:41.789Z,100910.00
2022-10-13T11:14:43.318Z,100904.41
2022-10-13T11:19:29.161Z,100890.06
2022-10-13T11:23:33.652Z,100866.59
2022-10-13T11:27:35.072Z,100852.66
2022-10-13T11:31:51.719Z,100834.03
2022-10-13T11:35:53.622Z,100841.88
2022-10-13T11:40:21.180Z,100833.50
2022-10-13T11:44:41.950Z,100825.69
2022-10-13T11:48:52.532Z,100817.03
2022-10-13T11:53:16.421Z,100827.16
2022-10-13T11:57:23.899Z,100823.63
2022-10-13T12:01:25.417Z,100828.19
2022-10-13T12:05:29.035Z,100815.31
2022-10-13T12:09:31.949Z,100818.84
2022-10-13T12:13:35.928Z,100808.56
2022-10-13T12:17:38.850Z,100802.63
2022-10-13T12:21:55.355Z,100798.31
2022-10-13T12:25:58.615Z,100786.41
2022-10-13T12:30:01.430Z,100789.88
2022-10-13T12:34:03.568Z,100777.03
2022-10-13T12:38:19.140Z,100777.72
2022-10-13T12:42:28.801Z,100778.53
2022-10-13T12:46:42.633Z,100775.03
2022-10-13T12:50:44.747Z,100768.16
2022-10-13T12:54:55.178Z,100764.00
2022-10-13T12:58:58.613Z,100769.28
2022-10-13T13:03:01.505Z,100767.78
2022-10-13T13:07:04.952Z,100761.09
2022-10-13T13:11:20.039Z,100764.63
2022-10-13T13:15:25.178Z,100764.66
2022-10-13T13:19:26.918Z,100758.53
2022-10-13T13:23:34.020Z,100754.91
2022-10-13T13:27:40.029Z,100753.88
2022-10-13T13:31:41.878Z,100759.75
2022-10-13T13:35:43.443Z,100743.22
2022-10-13T13:39:44.976Z,100722.38
2022-10-13T13:43:46.679Z,100728.34
2022-10-13T13:47:48.434Z,100730.97
2022-10-13T13:51:50.004Z,100732.09
2022-10-13T13:55:52.136Z,100730.69
2022-10-13T13:59:53.755Z,100736.09
2022-10-13T14:03:55.276Z,100730.97
2022-10-13T14:07:58.034Z,100729.25
2022-10-13T14:11:59.943Z,100718.03
2022-10-13T14:16:02.636Z,100729.34
2022-10-13T14:20:04.619Z,100724.09
2022-10-13T14:24:10.559Z,100729.88
2022-10-13T14:28:17.245Z,100717.50
2022-10-13T14:32:19.976Z,100728.38
2022-10-13T14:36:21.787Z,100726.53
2022-10-13T14:40:23.307Z,100733.47
2022-10-13T14:44:24.805Z,100736.03
2022-10-13T14:48:26.373Z,100735.06
2022-10-13T14:52:27.881Z,100728.03
2022-10-13T14:56:30.949Z,100720.28
2022-10-13T15:00:32.741Z,100727.03
2022-10-13T15:04:36.025Z,100730.41
2022-10-13T15:08:37.558Z,100730.41
2022-10-13T15:12:39.059Z,100731.19
2022-10-13T15:16:40.708Z,100719.00
2022-10-13T15:20:49.099Z,100724.13
2022-10-13T15:24:51.188Z,100724.13
2022-10-13T15:28:53.523Z,100725.84
2022-10-13T15:32:55.186Z,100724.06
2022-10-13T15:36:58.373Z,100719.69
2022-10-13T15:41:01.300Z,100729.09
2022-10-13T15:45:11.601Z,100723.03
2022-10-13T15:49:13.460Z,100714.28
2022-10-13T15:53:15.110Z,100711.56
2022-10-13T15:57:16.977Z,100721.84
2022-10-13T16:01:18.610Z,100715.75
2022-10-13T16:05:20.316Z,100720.03
2022-10-13T16:09:21.857Z,100727.69
2022-10-13T16:13:23.552Z,100725.00
2022-10-13T16:17:25.145Z,100726.69
2022-10-13T16:21:26.875Z,100716.31
2022-10-13T16:25:29.267Z,100718.03
2022-10-13T16:29:30.810Z,100710.19
2022-10-13T16:33:37.280Z,100715.28
2022-10-13T16:37:38.770Z,100714.31
2022-10-13T16:41:40.657Z,100701.41
2022-10-13T16:45:58.986Z,100705.66
2022-10-13T16:50:01.715Z,100711.59
2022-10-13T16:54:04.594Z,100708.94
2022-10-13T16:58:06.629Z,100709.72
2022-10-13T17:02:14.402Z,100714.81
2022-10-13T17:06:17.995Z,100707.03
2022-10-13T17:10:19.492Z,100717.31
2022-10-13T17:14:21.025Z,100717.28
2022-10-13T17:18:23.575Z,100720.69
2022-10-13T17:22:25.157Z,100722.38
2022-10-13T17:26:26.727Z,100725.84
2022-10-13T17:30:31.329Z,100721.53
2022-10-13T17:34:33.055Z,100724.13
2022-10-13T17:38:35.129Z,100718.91
2022-10-13T17:42:38.418Z,100714.44
2022-10-13T17:46:40.097Z,100729.00
2022-10-13T17:50:41.690Z,100730.75
2022-10-13T17:54:43.311Z,100717.84
2022-10-13T17:58:46.627Z,100729.88
2022-10-13T18:02:48.840Z,100731.56
2022-10-13T18:06:51.184Z,100735.03
2022-10-13T18:11:08.716Z,100729.81
2022-10-13T18:15:10.513Z,100746.19
2022-10-13T18:19:12.494Z,100743.63
2022-10-13T18:23:14.838Z,100739.19
2022-10-13T18:27:16.389Z,100742.59
2022-10-13T18:31:27.499Z,100744.31
2022-10-13T18:35:32.446Z,100732.19
2022-10-13T18:39:34.415Z,100725.25
2022-10-13T18:43:35.922Z,100734.72
2022-10-13T18:47:37.432Z,100745.84
2022-10-13T18:51:40.320Z,100742.34
2022-10-13T18:55:43.685Z,100735.41
2022-10-13T18:59:45.262Z,100734.47
2022-10-13T19:03:48.055Z,100728.47
2022-10-13T19:07:49.589Z,100737.94
2022-10-13T19:11:51.137Z,100740.53
2022-10-13T19:16:00.163Z,100734.47
2022-10-13T19:20:01.705Z,100737.88
2022-10-13T19:24:03.777Z,100736.09
2022-10-13T19:28:05.398Z,100727.50
2022-10-13T19:32:07.552Z,100735.28
2022-10-13T19:36:10.792Z,100727.59
2022-10-13T19:40:12.361Z,100743.09
2022-10-13T19:44:16.012Z,100742.25
2022-10-13T19:48:17.516Z,100742.22
2022-10-13T19:52:19.065Z,100737.81
2022-10-13T19:56:26.641Z,100736.84
2022-10-13T20:00:28.255Z,100739.47
2022-10-13T20:04:30.008Z,100744.69
2022-10-13T20:08:31.550Z,100741.31
2022-10-13T20:12:33.099Z,100739.66
2022-10-13T20:16:34.925Z,100744.00
2022-10-13T20:20:36.790Z,100741.44
2022-10-13T20:24:38.384Z,100742.28
2022-10-13T20:28:43.587Z,100747.44
2022-10-13T20:32:45.405Z,100742.28
2022-10-13T20:36:50.279Z,100738.78
2022-10-13T20:40:51.821Z,100747.41
2022-10-13T20:44:53.553Z,100729.31
2022-10-13T20:49:10.290Z,100731.91
2022-10-13T20:53:12.768Z,100740.47
2022-10-13T20:57:15.965Z,100738.72
2022-10-13T21:01:21.195Z,100737.00
2022-10-13T21:05:22.752Z,100739.53
2022-10-13T21:09:24.294Z,100736.03
2022-10-13T21:13:26.572Z,100736.84
2022-10-13T21:17:29.716Z,100732.47
2022-10-13T21:21:32.979Z,100740.22
2022-10-13T21:25:35.652Z,100728.09
2022-10-13T21:29:37.144Z,100739.28
2022-10-13T21:33:40.093Z,100733.22
2022-10-13T21:37:41.623Z,100737.50
2022-10-13T21:41:43.235Z,100744.38
2022-10-13T21:45:44.802Z,100745.25
2022-10-13T21:49:46.360Z,100740.09
2022-10-13T21:53:50.184Z,100736.66
2022-10-13T21:57:51.715Z,100742.66
2022-10-13T22:01:54.245Z,100747.81
2022-10-13T22:05:55.805Z,100743.53
2022-10-13T22:09:57.347Z,100757.28
2022-10-13T22:13:59.601Z,100750.41
2022-10-13T22:18:01.205Z,100762.41
2022-10-13T22:22:03.867Z,100766.69
2022-10-13T22:26:05.442Z,100777.00
2022-10-13T22:30:07.742Z,100768.47
2022-10-13T22:34:09.594Z,100764.13
2022-10-13T22:38:11.088Z,100765.81
2022-10-13T22:42:12.574Z,100766.75
2022-10-13T22:46:15.860Z,100753.00
2022-10-13T22:50:18.463Z,100767.59
2022-10-13T22:54:19.994Z,100762.41
2022-10-13T22:58:21.517Z,100753.84
2022-10-13T23:02:24.657Z,100755.63
2022-10-13T23:06:33.122Z,100755.63
2022-10-13T23:10:36.965Z,100754.72
2022-10-13T23:14:38.477Z,100742.66
2022-10-13T23:18:40.463Z,100731.44
2022-10-13T23:22:44.265Z,100742.66
2022-10-13T23:26:45.780Z,100730.63
2022-10-13T23:30:47.274Z,100737.44
2022-10-13T23:34:49.935Z,100739.13
2022-10-13T23:38:59.801Z,100741.69
2022-10-13T23:43:01.318Z,100738.19
2022-10-13T23:47:02.855Z,100732.13
2022-10-13T23:51:10.072Z,100732.09
2022-10-13T23:55:11.645Z,100738.06
2022-10-13T23:59:13.183Z,100724.22
